KDAY

James M Cox Dayton International Airport

Dayton, Ohio, USA

KDAY 110856Z 32006KT 10SM OVC024 M02/M05 A3007 RMK AO2 SLP192 T10171050 51008

Observed Flight Rules
Dec-11 @ 08:56 UTC (36 minutes ago) Marginal Visual Flight Rules
Wind Visibility Clouds
320° at 6 knots 10 miles
  • Overcast at 2,400' AGL
Temperatures Readings
Current -2°C / 28°F
Dewpoint -5°C / 23°F
Humidity 80%
Altimeter 30.07" Hg
Pressure 1019.2 hPa
Elevation 305
Observed Flight Rules
Dec-11 @ 08:56 UTC
(36 minutes ago)
MVFR
Wind Visibility
320° at 6 knots 10 miles
Clouds
  • Overcast at 2,400' AGL
Temperature Dewpoint
-2°C / 28°F -5°C / 23°F
Humidity Altimeter Pressure
80% 30.07" Hg 1019.2 hPa